sensor_id;sensor_type;location;lat;lon;timestamp;temperature;humidity
9103;DHT22;4587;51.434;6.788;2024-01-30T00:01:15;10.20;99.90
9103;DHT22;4587;51.434;6.788;2024-01-30T00:03:40;10.10;99.90
9103;DHT22;4587;51.434;6.788;2024-01-30T00:06:07;10.10;99.90
9103;DHT22;4587;51.434;6.788;2024-01-30T00:08:33;10.10;99.90
9103;DHT22;4587;51.434;6.788;2024-01-30T00:10:58;10.10;99.90
9103;DHT22;4587;51.434;6.788;2024-01-30T00:13:24;10.10;99.90
9103;DHT22;4587;51.434;6.788;2024-01-30T00:15:50;10.20;99.90
9103;DHT22;4587;51.434;6.788;2024-01-30T00:18:15;10.20;99.90
9103;DHT22;4587;51.434;6.788;2024-01-30T00:20:41;10.20;99.90
9103;DHT22;4587;51.434;6.788;2024-01-30T00:23:08;10.10;99.90
9103;DHT22;4587;51.434;6.788;2024-01-30T00:25:33;10.10;99.90
9103;DHT22;4587;51.434;6.788;2024-01-30T00:27:59;10.10;99.90
9103;DHT22;4587;51.434;6.788;2024-01-30T00:30:24;10.00;99.90
9103;DHT22;4587;51.434;6.788;2024-01-30T00:32:50;10.10;99.90
9103;DHT22;4587;51.434;6.788;2024-01-30T00:35:16;10.10;99.90
9103;DHT22;4587;51.434;6.788;2024-01-30T00:37:41;10.10;99.90
9103;DHT22;4587;51.434;6.788;2024-01-30T00:40:07;10.00;99.90
9103;DHT22;4587;51.434;6.788;2024-01-30T00:42:35;10.10;99.90
9103;DHT22;4587;51.434;6.788;2024-01-30T00:45:01;10.10;99.90
9103;DHT22;4587;51.434;6.788;2024-01-30T00:47:27;10.20;99.90
9103;DHT22;4587;51.434;6.788;2024-01-30T00:49:52;10.10;99.90
9103;DHT22;4587;51.434;6.788;2024-01-30T00:52:18;10.10;99.90
9103;DHT22;4587;51.434;6.788;2024-01-30T00:54:43;10.00;99.90
9103;DHT22;4587;51.434;6.788;2024-01-30T00:57:09;10.00;99.90
9103;DHT22;4587;51.434;6.788;2024-01-30T00:59:34;10.00;99.90
9103;DHT22;4587;51.434;6.788;2024-01-30T01:02:00;10.00;99.90
9103;DHT22;4587;51.434;6.788;2024-01-30T01:04:25;10.10;99.90
9103;DHT22;4587;51.434;6.788;2024-01-30T01:06:52;10.00;99.90
9103;DHT22;4587;51.434;6.788;2024-01-30T01:09:17;10.10;99.90
9103;DHT22;4587;51.434;6.788;2024-01-30T01:11:43;10.10;99.90
9103;DHT22;4587;51.434;6.788;2024-01-30T01:14:08;10.10;99.90
9103;DHT22;4587;51.434;6.788;2024-01-30T01:16:34;10.10;99.90
9103;DHT22;4587;51.434;6.788;2024-01-30T01:19:00;10.00;99.90
9103;DHT22;4587;51.434;6.788;2024-01-30T01:21:26;10.00;99.90
9103;DHT22;4587;51.434;6.788;2024-01-30T01:23:51;9.90;99.90
9103;DHT22;4587;51.434;6.788;2024-01-30T01:26:17;10.00;99.90
9103;DHT22;4587;51.434;6.788;2024-01-30T01:28:42;9.90;99.90
9103;DHT22;4587;51.434;6.788;2024-01-30T01:31:08;10.00;99.90
9103;DHT22;4587;51.434;6.788;2024-01-30T01:33:34;10.00;99.90
9103;DHT22;4587;51.434;6.788;2024-01-30T01:36:01;10.00;99.90
9103;DHT22;4587;51.434;6.788;2024-01-30T01:38:29;10.10;99.90
9103;DHT22;4587;51.434;6.788;2024-01-30T01:40:54;10.00;99.90
9103;DHT22;4587;51.434;6.788;2024-01-30T01:43:20;10.00;99.90
9103;DHT22;4587;51.434;6.788;2024-01-30T01:45:46;9.90;99.90
9103;DHT22;4587;51.434;6.788;2024-01-30T01:48:11;9.90;99.90
9103;DHT22;4587;51.434;6.788;2024-01-30T01:50:38;9.90;99.90
9103;DHT22;4587;51.434;6.788;2024-01-30T01:53:07;9.80;99.90
9103;DHT22;4587;51.434;6.788;2024-01-30T01:55:33;9.90;99.90
9103;DHT22;4587;51.434;6.788;2024-01-30T01:58:00;9.80;99.90
9103;DHT22;4587;51.434;6.788;2024-01-30T02:00:26;9.80;99.90
9103;DHT22;4587;51.434;6.788;2024-01-30T02:02:53;9.80;99.90
9103;DHT22;4587;51.434;6.788;2024-01-30T02:05:20;9.80;99.90
9103;DHT22;4587;51.434;6.788;2024-01-30T02:07:46;9.70;99.90
9103;DHT22;4587;51.434;6.788;2024-01-30T02:10:12;9.80;99.90
9103;DHT22;4587;51.434;6.788;2024-01-30T02:12:38;9.70;99.90
9103;DHT22;4587;51.434;6.788;2024-01-30T02:15:04;9.60;99.90
9103;DHT22;4587;51.434;6.788;2024-01-30T02:17:30;9.60;99.90
9103;DHT22;4587;51.434;6.788;2024-01-30T02:19:56;9.70;99.90
9103;DHT22;4587;51.434;6.788;2024-01-30T02:22:22;9.60;99.90
9103;DHT22;4587;51.434;6.788;2024-01-30T02:24:49;9.70;99.90
9103;DHT22;4587;51.434;6.788;2024-01-30T02:27:14;9.60;99.90
9103;DHT22;4587;51.434;6.788;2024-01-30T02:29:40;9.60;99.90
9103;DHT22;4587;51.434;6.788;2024-01-30T02:32:06;9.60;99.90
9103;DHT22;4587;51.434;6.788;2024-01-30T02:34:33;9.70;99.90
9103;DHT22;4587;51.434;6.788;2024-01-30T02:36:58;9.70;99.90
9103;DHT22;4587;51.434;6.788;2024-01-30T02:39:24;9.70;99.90
9103;DHT22;4587;51.434;6.788;2024-01-30T02:41:49;9.70;99.90
9103;DHT22;4587;51.434;6.788;2024-01-30T02:44:15;9.60;99.90
9103;DHT22;4587;51.434;6.788;2024-01-30T02:46:40;9.70;99.90
9103;DHT22;4587;51.434;6.788;2024-01-30T02:49:06;9.60;99.90
9103;DHT22;4587;51.434;6.788;2024-01-30T02:51:31;9.60;99.90
9103;DHT22;4587;51.434;6.788;2024-01-30T02:53:57;9.60;99.90
9103;DHT22;4587;51.434;6.788;2024-01-30T02:56:22;9.60;99.90
9103;DHT22;4587;51.434;6.788;2024-01-30T02:58:48;9.70;99.90
9103;DHT22;4587;51.434;6.788;2024-01-30T03:01:13;9.70;99.90
9103;DHT22;4587;51.434;6.788;2024-01-30T03:03:39;9.70;99.90
9103;DHT22;4587;51.434;6.788;2024-01-30T03:06:06;9.70;99.90
9103;DHT22;4587;51.434;6.788;2024-01-30T03:08:32;9.60;99.90
9103;DHT22;4587;51.434;6.788;2024-01-30T03:10:58;9.70;99.90
9103;DHT22;4587;51.434;6.788;2024-01-30T03:13:23;9.60;99.90
9103;DHT22;4587;51.434;6.788;2024-01-30T03:15:50;9.60;99.90
9103;DHT22;4587;51.434;6.788;2024-01-30T03:18:16;9.60;99.90
9103;DHT22;4587;51.434;6.788;2024-01-30T03:20:41;9.60;99.90
9103;DHT22;4587;51.434;6.788;2024-01-30T03:23:07;9.60;99.90
9103;DHT22;4587;51.434;6.788;2024-01-30T03:25:32;9.60;99.90
9103;DHT22;4587;51.434;6.788;2024-01-30T03:27:58;9.60;99.90
9103;DHT22;4587;51.434;6.788;2024-01-30T03:30:23;9.60;99.90
9103;DHT22;4587;51.434;6.788;2024-01-30T03:32:49;9.60;99.90
9103;DHT22;4587;51.434;6.788;2024-01-30T03:35:14;9.60;99.90
9103;DHT22;4587;51.434;6.788;2024-01-30T03:37:40;9.60;99.90
9103;DHT22;4587;51.434;6.788;2024-01-30T03:40:06;9.50;99.90
9103;DHT22;4587;51.434;6.788;2024-01-30T03:42:31;9.60;99.90
9103;DHT22;4587;51.434;6.788;2024-01-30T03:44:57;9.60;99.90
9103;DHT22;4587;51.434;6.788;2024-01-30T03:47:23;9.60;99.90
9103;DHT22;4587;51.434;6.788;2024-01-30T03:49:48;9.70;99.90
9103;DHT22;4587;51.434;6.788;2024-01-30T03:52:14;9.60;99.90
9103;DHT22;4587;51.434;6.788;2024-01-30T03:54:39;9.50;99.90
9103;DHT22;4587;51.434;6.788;2024-01-30T03:57:05;9.60;99.90
9103;DHT22;4587;51.434;6.788;2024-01-30T03:59:31;9.50;99.90
9103;DHT22;4587;51.434;6.788;2024-01-30T04:01:56;9.60;99.90
9103;DHT22;4587;51.434;6.788;2024-01-30T04:04:22;9.60;99.90
9103;DHT22;4587;51.434;6.788;2024-01-30T04:06:48;9.60;99.90
9103;DHT22;4587;51.434;6.788;2024-01-30T04:09:14;9.50;99.90
9103;DHT22;4587;51.434;6.788;2024-01-30T04:11:40;9.50;99.90
9103;DHT22;4587;51.434;6.788;2024-01-30T04:14:05;9.50;99.90
9103;DHT22;4587;51.434;6.788;2024-01-30T04:16:31;9.50;99.90
9103;DHT22;4587;51.434;6.788;2024-01-30T04:18:57;9.60;99.90
9103;DHT22;4587;51.434;6.788;2024-01-30T04:21:23;9.50;99.90
9103;DHT22;4587;51.434;6.788;2024-01-30T04:23:48;9.50;99.90
9103;DHT22;4587;51.434;6.788;2024-01-30T04:26:14;9.50;99.90
9103;DHT22;4587;51.434;6.788;2024-01-30T04:28:46;9.50;99.90
9103;DHT22;4587;51.434;6.788;2024-01-30T04:31:11;9.50;99.90
9103;DHT22;4587;51.434;6.788;2024-01-30T04:33:37;9.50;99.90
9103;DHT22;4587;51.434;6.788;2024-01-30T04:36:03;9.40;99.90
9103;DHT22;4587;51.434;6.788;2024-01-30T04:38:29;9.40;99.90
9103;DHT22;4587;51.434;6.788;2024-01-30T04:40:54;9.40;99.90
9103;DHT22;4587;51.434;6.788;2024-01-30T04:43:20;9.40;99.90
9103;DHT22;4587;51.434;6.788;2024-01-30T04:45:45;9.30;99.90
9103;DHT22;4587;51.434;6.788;2024-01-30T04:48:11;9.30;99.90
9103;DHT22;4587;51.434;6.788;2024-01-30T04:50:37;9.30;99.90
9103;DHT22;4587;51.434;6.788;2024-01-30T04:53:02;9.30;99.90
9103;DHT22;4587;51.434;6.788;2024-01-30T04:55:28;9.20;99.90
9103;DHT22;4587;51.434;6.788;2024-01-30T04:57:53;9.30;99.90
9103;DHT22;4587;51.434;6.788;2024-01-30T05:00:19;9.30;99.90
9103;DHT22;4587;51.434;6.788;2024-01-30T05:02:45;9.30;99.90
9103;DHT22;4587;51.434;6.788;2024-01-30T05:05:11;9.20;99.90
9103;DHT22;4587;51.434;6.788;2024-01-30T05:07:36;9.30;99.90
9103;DHT22;4587;51.434;6.788;2024-01-30T05:10:02;9.40;99.90
9103;DHT22;4587;51.434;6.788;2024-01-30T05:12:28;9.30;99.90
9103;DHT22;4587;51.434;6.788;2024-01-30T05:14:54;9.40;99.90
9103;DHT22;4587;51.434;6.788;2024-01-30T05:17:20;9.40;99.90
9103;DHT22;4587;51.434;6.788;2024-01-30T05:19:45;9.40;99.90
9103;DHT22;4587;51.434;6.788;2024-01-30T05:22:11;9.50;99.90
9103;DHT22;4587;51.434;6.788;2024-01-30T05:24:41;9.30;99.90
9103;DHT22;4587;51.434;6.788;2024-01-30T05:27:07;9.40;99.90
9103;DHT22;4587;51.434;6.788;2024-01-30T05:29:32;9.50;99.90
9103;DHT22;4587;51.434;6.788;2024-01-30T05:31:58;9.40;99.90
9103;DHT22;4587;51.434;6.788;2024-01-30T05:34:24;9.40;99.90
9103;DHT22;4587;51.434;6.788;2024-01-30T05:36:49;9.30;99.90
9103;DHT22;4587;51.434;6.788;2024-01-30T05:39:15;9.40;99.90
9103;DHT22;4587;51.434;6.788;2024-01-30T05:41:40;9.40;99.90
9103;DHT22;4587;51.434;6.788;2024-01-30T05:44:06;9.40;99.90
9103;DHT22;4587;51.434;6.788;2024-01-30T05:46:31;9.40;99.90
9103;DHT22;4587;51.434;6.788;2024-01-30T05:48:57;9.40;99.90
9103;DHT22;4587;51.434;6.788;2024-01-30T05:51:23;9.50;99.90
9103;DHT22;4587;51.434;6.788;2024-01-30T05:53:48;9.50;99.90
9103;DHT22;4587;51.434;6.788;2024-01-30T05:56:14;9.40;99.90
9103;DHT22;4587;51.434;6.788;2024-01-30T05:58:40;9.40;99.90
9103;DHT22;4587;51.434;6.788;2024-01-30T06:01:08;9.40;99.90
9103;DHT22;4587;51.434;6.788;2024-01-30T06:03:34;9.40;99.90
9103;DHT22;4587;51.434;6.788;2024-01-30T06:06:00;9.40;99.90
9103;DHT22;4587;51.434;6.788;2024-01-30T06:08:25;9.50;99.90
9103;DHT22;4587;51.434;6.788;2024-01-30T06:10:51;9.50;99.90
9103;DHT22;4587;51.434;6.788;2024-01-30T06:13:16;9.50;99.90
9103;DHT22;4587;51.434;6.788;2024-01-30T06:15:42;9.50;99.90
9103;DHT22;4587;51.434;6.788;2024-01-30T06:18:07;9.40;99.90
9103;DHT22;4587;51.434;6.788;2024-01-30T06:20:33;9.50;99.90
9103;DHT22;4587;51.434;6.788;2024-01-30T06:22:59;9.50;99.90
9103;DHT22;4587;51.434;6.788;2024-01-30T06:25:25;9.60;99.90
9103;DHT22;4587;51.434;6.788;2024-01-30T06:27:50;9.70;99.90
9103;DHT22;4587;51.434;6.788;2024-01-30T06:30:16;9.60;99.90
9103;DHT22;4587;51.434;6.788;2024-01-30T06:32:42;9.60;99.90
9103;DHT22;4587;51.434;6.788;2024-01-30T06:35:07;9.60;99.90
9103;DHT22;4587;51.434;6.788;2024-01-30T06:37:33;9.50;99.90
9103;DHT22;4587;51.434;6.788;2024-01-30T06:39:59;9.60;99.90
9103;DHT22;4587;51.434;6.788;2024-01-30T06:42:24;9.60;99.90
9103;DHT22;4587;51.434;6.788;2024-01-30T06:44:50;9.50;99.90
9103;DHT22;4587;51.434;6.788;2024-01-30T06:47:15;9.60;99.90
9103;DHT22;4587;51.434;6.788;2024-01-30T06:49:41;9.60;99.90
9103;DHT22;4587;51.434;6.788;2024-01-30T06:52:08;9.70;99.90
9103;DHT22;4587;51.434;6.788;2024-01-30T06:54:33;9.70;99.90
9103;DHT22;4587;51.434;6.788;2024-01-30T06:56:59;9.80;99.90
9103;DHT22;4587;51.434;6.788;2024-01-30T06:59:25;9.80;99.90
9103;DHT22;4587;51.434;6.788;2024-01-30T07:01:50;9.80;99.90
9103;DHT22;4587;51.434;6.788;2024-01-30T07:04:16;9.90;99.90
9103;DHT22;4587;51.434;6.788;2024-01-30T07:06:42;9.80;99.90
9103;DHT22;4587;51.434;6.788;2024-01-30T07:09:08;9.90;99.90
9103;DHT22;4587;51.434;6.788;2024-01-30T07:11:34;9.90;99.90
9103;DHT22;4587;51.434;6.788;2024-01-30T07:13:59;9.90;99.90
9103;DHT22;4587;51.434;6.788;2024-01-30T07:16:25;9.70;99.90
9103;DHT22;4587;51.434;6.788;2024-01-30T07:18:51;9.70;99.90
9103;DHT22;4587;51.434;6.788;2024-01-30T07:21:16;9.70;99.90
9103;DHT22;4587;51.434;6.788;2024-01-30T07:23:42;9.70;99.90
9103;DHT22;4587;51.434;6.788;2024-01-30T07:26:08;9.70;99.90
9103;DHT22;4587;51.434;6.788;2024-01-30T07:28:34;9.80;99.90
9103;DHT22;4587;51.434;6.788;2024-01-30T07:31:03;9.70;99.90
9103;DHT22;4587;51.434;6.788;2024-01-30T07:33:29;9.80;99.90
9103;DHT22;4587;51.434;6.788;2024-01-30T07:35:54;9.80;99.90
9103;DHT22;4587;51.434;6.788;2024-01-30T07:38:20;9.80;99.90
9103;DHT22;4587;51.434;6.788;2024-01-30T07:40:46;9.80;99.90
9103;DHT22;4587;51.434;6.788;2024-01-30T07:43:12;9.70;99.90
9103;DHT22;4587;51.434;6.788;2024-01-30T07:45:37;9.80;99.90
9103;DHT22;4587;51.434;6.788;2024-01-30T07:48:06;9.80;99.90
9103;DHT22;4587;51.434;6.788;2024-01-30T07:50:32;9.80;99.90
9103;DHT22;4587;51.434;6.788;2024-01-30T07:52:59;9.70;99.90
9103;DHT22;4587;51.434;6.788;2024-01-30T07:55:25;9.70;99.90
9103;DHT22;4587;51.434;6.788;2024-01-30T08:01:27;9.80;99.90
9103;DHT22;4587;51.434;6.788;2024-01-30T08:03:53;9.90;99.90
9103;DHT22;4587;51.434;6.788;2024-01-30T08:06:18;9.90;99.90
9103;DHT22;4587;51.434;6.788;2024-01-30T08:08:44;9.80;99.90
9103;DHT22;4587;51.434;6.788;2024-01-30T08:11:10;9.90;99.90
9103;DHT22;4587;51.434;6.788;2024-01-30T08:13:36;10.00;99.90
9103;DHT22;4587;51.434;6.788;2024-01-30T08:16:01;10.00;99.90
9103;DHT22;4587;51.434;6.788;2024-01-30T08:18:27;9.90;99.90
9103;DHT22;4587;51.434;6.788;2024-01-30T08:20:52;9.90;99.90
9103;DHT22;4587;51.434;6.788;2024-01-30T08:23:18;10.00;99.90
9103;DHT22;4587;51.434;6.788;2024-01-30T08:25:43;10.00;99.90
9103;DHT22;4587;51.434;6.788;2024-01-30T08:28:09;10.10;99.90
9103;DHT22;4587;51.434;6.788;2024-01-30T08:30:34;10.10;99.90
9103;DHT22;4587;51.434;6.788;2024-01-30T08:33:00;10.10;99.90
9103;DHT22;4587;51.434;6.788;2024-01-30T08:35:25;10.10;99.90
9103;DHT22;4587;51.434;6.788;2024-01-30T08:37:50;10.10;99.90
9103;DHT22;4587;51.434;6.788;2024-01-30T08:40:16;10.20;99.90
9103;DHT22;4587;51.434;6.788;2024-01-30T08:42:41;10.30;99.90
9103;DHT22;4587;51.434;6.788;2024-01-30T08:45:07;10.30;99.90
9103;DHT22;4587;51.434;6.788;2024-01-30T08:47:34;10.30;99.90
9103;DHT22;4587;51.434;6.788;2024-01-30T08:50:00;10.30;99.90
9103;DHT22;4587;51.434;6.788;2024-01-30T08:52:25;10.40;99.90
9103;DHT22;4587;51.434;6.788;2024-01-30T08:54:51;10.40;99.90
9103;DHT22;4587;51.434;6.788;2024-01-30T08:57:16;10.50;99.90
9103;DHT22;4587;51.434;6.788;2024-01-30T08:59:42;10.50;99.90
9103;DHT22;4587;51.434;6.788;2024-01-30T09:02:09;10.50;99.90
9103;DHT22;4587;51.434;6.788;2024-01-30T09:04:35;10.60;99.90
9103;DHT22;4587;51.434;6.788;2024-01-30T09:07:01;10.60;99.90
9103;DHT22;4587;51.434;6.788;2024-01-30T09:09:26;10.60;99.90
9103;DHT22;4587;51.434;6.788;2024-01-30T09:11:52;10.60;99.90
9103;DHT22;4587;51.434;6.788;2024-01-30T09:14:17;10.60;99.90
9103;DHT22;4587;51.434;6.788;2024-01-30T09:16:43;10.70;99.90
9103;DHT22;4587;51.434;6.788;2024-01-30T09:19:08;10.70;99.90
9103;DHT22;4587;51.434;6.788;2024-01-30T09:21:34;10.70;99.90
9103;DHT22;4587;51.434;6.788;2024-01-30T09:24:03;10.70;99.90
9103;DHT22;4587;51.434;6.788;2024-01-30T09:26:31;10.80;99.90
9103;DHT22;4587;51.434;6.788;2024-01-30T09:28:57;10.80;99.90
9103;DHT22;4587;51.434;6.788;2024-01-30T09:31:22;10.90;99.90
9103;DHT22;4587;51.434;6.788;2024-01-30T09:33:48;11.00;99.90
9103;DHT22;4587;51.434;6.788;2024-01-30T09:36:14;11.30;99.90
9103;DHT22;4587;51.434;6.788;2024-01-30T09:38:45;11.60;99.90
9103;DHT22;4587;51.434;6.788;2024-01-30T09:41:10;11.90;99.90
9103;DHT22;4587;51.434;6.788;2024-01-30T09:43:38;12.00;99.90
9103;DHT22;4587;51.434;6.788;2024-01-30T09:46:05;12.20;99.90
9103;DHT22;4587;51.434;6.788;2024-01-30T09:48:33;12.20;99.90
9103;DHT22;4587;51.434;6.788;2024-01-30T09:50:59;12.10;99.90
9103;DHT22;4587;51.434;6.788;2024-01-30T09:53:25;12.10;99.90
9103;DHT22;4587;51.434;6.788;2024-01-30T09:55:51;12.10;99.90
9103;DHT22;4587;51.434;6.788;2024-01-30T09:58:17;12.20;99.90
9103;DHT22;4587;51.434;6.788;2024-01-30T10:00:42;12.20;99.90
9103;DHT22;4587;51.434;6.788;2024-01-30T10:03:08;12.30;99.90
9103;DHT22;4587;51.434;6.788;2024-01-30T10:05:35;12.30;99.90
9103;DHT22;4587;51.434;6.788;2024-01-30T10:08:06;12.30;99.90
9103;DHT22;4587;51.434;6.788;2024-01-30T10:10:31;12.30;99.90
9103;DHT22;4587;51.434;6.788;2024-01-30T10:12:57;12.30;99.90
9103;DHT22;4587;51.434;6.788;2024-01-30T10:15:22;12.30;99.90
9103;DHT22;4587;51.434;6.788;2024-01-30T10:17:49;12.40;99.90
9103;DHT22;4587;51.434;6.788;2024-01-30T10:20:14;12.30;99.90
9103;DHT22;4587;51.434;6.788;2024-01-30T10:22:41;12.40;99.90
9103;DHT22;4587;51.434;6.788;2024-01-30T10:25:09;12.40;99.90
9103;DHT22;4587;51.434;6.788;2024-01-30T10:27:35;12.40;99.90
9103;DHT22;4587;51.434;6.788;2024-01-30T10:30:00;12.40;99.90
9103;DHT22;4587;51.434;6.788;2024-01-30T10:32:27;12.50;99.90
9103;DHT22;4587;51.434;6.788;2024-01-30T10:34:52;12.40;99.90
9103;DHT22;4587;51.434;6.788;2024-01-30T10:37:19;12.40;99.90
9103;DHT22;4587;51.434;6.788;2024-01-30T10:39:46;12.40;99.90
9103;DHT22;4587;51.434;6.788;2024-01-30T10:42:17;12.40;99.90
9103;DHT22;4587;51.434;6.788;2024-01-30T10:45:12;12.40;99.90
9103;DHT22;4587;51.434;6.788;2024-01-30T10:47:40;12.50;99.90
9103;DHT22;4587;51.434;6.788;2024-01-30T10:50:07;12.50;99.90
9103;DHT22;4587;51.434;6.788;2024-01-30T10:52:33;12.50;99.90
9103;DHT22;4587;51.434;6.788;2024-01-30T10:54:59;12.60;99.90
9103;DHT22;4587;51.434;6.788;2024-01-30T10:57:28;12.50;99.90
9103;DHT22;4587;51.434;6.788;2024-01-30T10:59:58;12.50;99.90
9103;DHT22;4587;51.434;6.788;2024-01-30T11:02:25;12.60;99.90
9103;DHT22;4587;51.434;6.788;2024-01-30T11:04:57;12.60;99.90
9103;DHT22;4587;51.434;6.788;2024-01-30T11:07:29;12.60;99.90
9103;DHT22;4587;51.434;6.788;2024-01-30T11:12:27;12.80;99.90
9103;DHT22;4587;51.434;6.788;2024-01-30T11:15:14;12.80;99.90
9103;DHT22;4587;51.434;6.788;2024-01-30T11:20:16;12.90;99.90
9103;DHT22;4587;51.434;6.788;2024-01-30T11:22:45;12.90;99.90
9103;DHT22;4587;51.434;6.788;2024-01-30T11:25:12;12.90;99.90
9103;DHT22;4587;51.434;6.788;2024-01-30T11:27:38;12.90;99.90
9103;DHT22;4587;51.434;6.788;2024-01-30T11:30:05;12.90;99.90
9103;DHT22;4587;51.434;6.788;2024-01-30T11:32:30;12.90;99.90
9103;DHT22;4587;51.434;6.788;2024-01-30T11:34:56;12.80;99.90
9103;DHT22;4587;51.434;6.788;2024-01-30T11:37:25;12.70;99.90
9103;DHT22;4587;51.434;6.788;2024-01-30T11:39:52;12.70;99.90
9103;DHT22;4587;51.434;6.788;2024-01-30T11:42:19;12.70;99.90
9103;DHT22;4587;51.434;6.788;2024-01-30T11:44:48;12.70;99.90
9103;DHT22;4587;51.434;6.788;2024-01-30T11:47:14;12.60;99.90
9103;DHT22;4587;51.434;6.788;2024-01-30T11:49:40;12.60;99.90
9103;DHT22;4587;51.434;6.788;2024-01-30T11:52:05;12.60;99.90
9103;DHT22;4587;51.434;6.788;2024-01-30T11:54:31;12.50;99.90
9103;DHT22;4587;51.434;6.788;2024-01-30T11:56:57;12.50;99.90
9103;DHT22;4587;51.434;6.788;2024-01-30T11:59:23;12.50;99.90
9103;DHT22;4587;51.434;6.788;2024-01-30T12:01:51;12.50;99.90
9103;DHT22;4587;51.434;6.788;2024-01-30T12:04:16;12.50;99.90
9103;DHT22;4587;51.434;6.788;2024-01-30T12:06:42;12.50;99.90
9103;DHT22;4587;51.434;6.788;2024-01-30T12:09:09;12.50;99.90
9103;DHT22;4587;51.434;6.788;2024-01-30T12:11:45;12.60;99.90
9103;DHT22;4587;51.434;6.788;2024-01-30T12:14:11;12.50;99.90
9103;DHT22;4587;51.434;6.788;2024-01-30T12:16:37;12.60;99.90
9103;DHT22;4587;51.434;6.788;2024-01-30T12:19:02;12.60;99.90
9103;DHT22;4587;51.434;6.788;2024-01-30T12:21:29;12.60;99.90
9103;DHT22;4587;51.434;6.788;2024-01-30T12:23:55;12.50;99.90
9103;DHT22;4587;51.434;6.788;2024-01-30T12:26:21;12.50;99.90
9103;DHT22;4587;51.434;6.788;2024-01-30T12:28:50;12.50;99.90
9103;DHT22;4587;51.434;6.788;2024-01-30T12:31:15;12.60;99.90
9103;DHT22;4587;51.434;6.788;2024-01-30T12:33:41;12.60;99.90
9103;DHT22;4587;51.434;6.788;2024-01-30T12:36:07;12.60;99.90
9103;DHT22;4587;51.434;6.788;2024-01-30T12:38:32;12.60;99.90
9103;DHT22;4587;51.434;6.788;2024-01-30T12:40:58;12.50;99.90
9103;DHT22;4587;51.434;6.788;2024-01-30T12:43:25;12.50;99.90
9103;DHT22;4587;51.434;6.788;2024-01-30T12:45:52;12.50;99.90
9103;DHT22;4587;51.434;6.788;2024-01-30T12:48:18;12.60;99.90
9103;DHT22;4587;51.434;6.788;2024-01-30T12:50:43;12.60;99.90
9103;DHT22;4587;51.434;6.788;2024-01-30T12:53:09;12.50;99.90
9103;DHT22;4587;51.434;6.788;2024-01-30T12:55:35;12.50;99.90
9103;DHT22;4587;51.434;6.788;2024-01-30T12:58:00;12.50;99.90
9103;DHT22;4587;51.434;6.788;2024-01-30T13:00:26;12.50;99.90
9103;DHT22;4587;51.434;6.788;2024-01-30T13:02:52;12.50;99.90
9103;DHT22;4587;51.434;6.788;2024-01-30T13:05:17;12.50;99.90
9103;DHT22;4587;51.434;6.788;2024-01-30T13:07:43;12.40;99.90
9103;DHT22;4587;51.434;6.788;2024-01-30T13:10:09;12.40;99.90
9103;DHT22;4587;51.434;6.788;2024-01-30T13:12:34;12.50;99.90
9103;DHT22;4587;51.434;6.788;2024-01-30T13:15:01;12.60;99.90
9103;DHT22;4587;51.434;6.788;2024-01-30T13:17:27;12.60;99.90
9103;DHT22;4587;51.434;6.788;2024-01-30T13:19:53;12.60;99.90
9103;DHT22;4587;51.434;6.788;2024-01-30T13:22:20;12.60;99.90
9103;DHT22;4587;51.434;6.788;2024-01-30T13:24:47;12.60;99.90
9103;DHT22;4587;51.434;6.788;2024-01-30T13:27:13;12.70;99.90
9103;DHT22;4587;51.434;6.788;2024-01-30T13:29:38;12.70;99.90
9103;DHT22;4587;51.434;6.788;2024-01-30T13:32:04;12.80;99.90
9103;DHT22;4587;51.434;6.788;2024-01-30T13:34:30;12.80;99.90
9103;DHT22;4587;51.434;6.788;2024-01-30T13:36:55;12.90;99.90
9103;DHT22;4587;51.434;6.788;2024-01-30T13:39:21;12.90;99.90
9103;DHT22;4587;51.434;6.788;2024-01-30T13:41:46;12.90;99.90
9103;DHT22;4587;51.434;6.788;2024-01-30T13:44:13;12.90;99.90
9103;DHT22;4587;51.434;6.788;2024-01-30T13:46:39;12.90;99.90
9103;DHT22;4587;51.434;6.788;2024-01-30T13:49:04;13.00;99.90
9103;DHT22;4587;51.434;6.788;2024-01-30T13:51:30;13.00;99.90
9103;DHT22;4587;51.434;6.788;2024-01-30T13:53:56;13.00;99.90
9103;DHT22;4587;51.434;6.788;2024-01-30T13:56:21;13.00;99.90
9103;DHT22;4587;51.434;6.788;2024-01-30T13:58:50;13.10;99.90
9103;DHT22;4587;51.434;6.788;2024-01-30T14:01:16;13.00;99.90
9103;DHT22;4587;51.434;6.788;2024-01-30T14:03:41;13.10;99.90
9103;DHT22;4587;51.434;6.788;2024-01-30T14:06:07;13.20;99.90
9103;DHT22;4587;51.434;6.788;2024-01-30T14:08:33;13.30;99.90
9103;DHT22;4587;51.434;6.788;2024-01-30T14:10:58;13.40;99.90
9103;DHT22;4587;51.434;6.788;2024-01-30T14:13:24;13.50;99.90
9103;DHT22;4587;51.434;6.788;2024-01-30T14:15:51;13.60;99.90
9103;DHT22;4587;51.434;6.788;2024-01-30T14:18:16;13.70;99.90
9103;DHT22;4587;51.434;6.788;2024-01-30T14:20:42;13.70;99.90
9103;DHT22;4587;51.434;6.788;2024-01-30T14:23:08;13.60;99.90
9103;DHT22;4587;51.434;6.788;2024-01-30T14:25:33;13.60;99.90
9103;DHT22;4587;51.434;6.788;2024-01-30T14:27:59;13.60;99.90
9103;DHT22;4587;51.434;6.788;2024-01-30T14:30:24;13.60;99.90
9103;DHT22;4587;51.434;6.788;2024-01-30T14:32:50;13.50;99.90
9103;DHT22;4587;51.434;6.788;2024-01-30T14:35:16;13.50;99.90
9103;DHT22;4587;51.434;6.788;2024-01-30T14:37:41;13.40;99.90
9103;DHT22;4587;51.434;6.788;2024-01-30T14:40:07;13.40;99.90
9103;DHT22;4587;51.434;6.788;2024-01-30T14:42:33;13.30;99.90
9103;DHT22;4587;51.434;6.788;2024-01-30T14:44:59;13.30;99.90
9103;DHT22;4587;51.434;6.788;2024-01-30T14:47:24;13.20;99.90
9103;DHT22;4587;51.434;6.788;2024-01-30T14:49:51;13.20;99.90
9103;DHT22;4587;51.434;6.788;2024-01-30T14:52:17;13.20;99.90
9103;DHT22;4587;51.434;6.788;2024-01-30T14:54:42;13.10;99.90
9103;DHT22;4587;51.434;6.788;2024-01-30T14:57:08;13.10;99.90
9103;DHT22;4587;51.434;6.788;2024-01-30T14:59:34;13.00;99.90
9103;DHT22;4587;51.434;6.788;2024-01-30T15:02:03;13.00;99.90
9103;DHT22;4587;51.434;6.788;2024-01-30T15:04:28;13.00;99.90
9103;DHT22;4587;51.434;6.788;2024-01-30T15:06:54;13.00;99.90
9103;DHT22;4587;51.434;6.788;2024-01-30T15:09:19;12.90;99.90
9103;DHT22;4587;51.434;6.788;2024-01-30T15:11:47;12.80;99.90
9103;DHT22;4587;51.434;6.788;2024-01-30T15:14:14;12.90;99.90
9103;DHT22;4587;51.434;6.788;2024-01-30T15:16:40;12.80;99.90
9103;DHT22;4587;51.434;6.788;2024-01-30T15:19:05;12.70;99.90
9103;DHT22;4587;51.434;6.788;2024-01-30T15:21:31;12.70;99.90
9103;DHT22;4587;51.434;6.788;2024-01-30T15:23:57;12.70;99.90
9103;DHT22;4587;51.434;6.788;2024-01-30T15:26:23;12.60;99.90
9103;DHT22;4587;51.434;6.788;2024-01-30T15:28:48;12.50;99.90
9103;DHT22;4587;51.434;6.788;2024-01-30T15:31:14;12.40;99.90
9103;DHT22;4587;51.434;6.788;2024-01-30T15:33:39;12.40;99.90
9103;DHT22;4587;51.434;6.788;2024-01-30T15:36:05;12.20;99.90
9103;DHT22;4587;51.434;6.788;2024-01-30T15:38:31;12.10;99.90
9103;DHT22;4587;51.434;6.788;2024-01-30T15:40:57;12.10;99.90
9103;DHT22;4587;51.434;6.788;2024-01-30T15:43:23;12.00;99.90
9103;DHT22;4587;51.434;6.788;2024-01-30T15:45:49;12.00;99.90
9103;DHT22;4587;51.434;6.788;2024-01-30T15:48:18;11.90;99.90
9103;DHT22;4587;51.434;6.788;2024-01-30T15:50:44;11.80;99.90
9103;DHT22;4587;51.434;6.788;2024-01-30T15:53:10;11.70;99.90
9103;DHT22;4587;51.434;6.788;2024-01-30T15:55:35;11.70;99.90
9103;DHT22;4587;51.434;6.788;2024-01-30T15:58:01;11.70;99.90
9103;DHT22;4587;51.434;6.788;2024-01-30T16:00:28;11.60;99.90
9103;DHT22;4587;51.434;6.788;2024-01-30T16:02:54;11.60;99.90
9103;DHT22;4587;51.434;6.788;2024-01-30T16:05:26;11.50;99.90
9103;DHT22;4587;51.434;6.788;2024-01-30T16:07:55;11.50;99.90